Time;durP1;ratioP1;P1;durP2;ratioP2;P2;SDS_P1;SDS_P2;PMS_P1;PMS_P2;Temp;Humidity;BMP_temperature;BMP_pressure;BME280_temperature;BME280_humidity;BME280_pressure;Samples;Min_cycle;Max_cycle;Signal;HPM_P1;HPM_P2
2023/06/06 00:02:21;;;;;;;;;;;;;;;24.92;41.60;98255.38;109471;1252;59537;-81
2023/06/06 00:04:52;;;;;;;;;;;;;;;24.92;41.64;98256.80;109432;1253;59577;-82
2023/06/06 00:07:20;;;;;;;;;;;;;;;24.93;41.65;98253.17;106540;1253;72828;-83
2023/06/06 00:09:48;;;;;;;;;;;;;;;24.94;41.62;98251.24;106134;1254;67777;-83
2023/06/06 00:12:16;;;;;;;;;;;;;;;24.95;41.65;98248.16;106006;1253;73467;-83
2023/06/06 00:14:44;;;;;;;;;;;;;;;24.95;41.56;98247.60;105981;1255;60534;-84
2023/06/06 00:17:13;;;;;;;;;;;;;;;24.95;41.64;98250.15;105992;1253;60491;-83
2023/06/06 00:19:42;;;;;;;;;;;;;;;24.95;41.60;98244.91;105935;1253;72823;-82
2023/06/06 00:22:10;;;;;;;;;;;;;;;24.95;41.45;98241.95;105938;1257;69470;-81
2023/06/06 00:24:38;;;;;;;;;;;;;;;24.95;41.65;98239.95;105981;1257;71650;-83
2023/06/06 00:27:06;;;;;;;;;;;;;;;24.94;41.57;98237.88;105908;1252;60420;-83
2023/06/06 00:29:34;;;;;;;;;;;;;;;24.94;41.61;98240.66;105856;1259;60603;-82
2023/06/06 00:32:02;;;;;;;;;;;;;;;24.93;41.65;98240.95;105780;1255;74562;-82
2023/06/06 00:34:30;;;;;;;;;;;;;;;24.92;41.60;98239.23;105838;1253;68932;-82
2023/06/06 00:36:58;;;;;;;;;;;;;;;24.92;41.57;98237.79;105887;1254;71868;-83
2023/06/06 00:39:26;;;;;;;;;;;;;;;24.90;41.66;98235.41;105832;1253;60912;-83
2023/06/06 00:41:54;;;;;;;;;;;;;;;24.89;41.60;98236.97;105813;1260;60372;-83
2023/06/06 00:44:22;;;;;;;;;;;;;;;24.88;41.60;98239.25;105848;1253;72881;-83
2023/06/06 00:46:50;;;;;;;;;;;;;;;24.88;41.69;98233.89;105923;1257;67031;-83
2023/06/06 00:49:18;;;;;;;;;;;;;;;24.87;41.66;98232.52;105911;1256;72829;-82
2023/06/06 00:51:46;;;;;;;;;;;;;;;24.86;41.68;98234.04;105891;1254;59151;-82
2023/06/06 00:54:14;;;;;;;;;;;;;;;24.86;41.63;98228.42;105835;1259;60420;-83
2023/06/06 00:56:43;;;;;;;;;;;;;;;24.86;41.63;98232.18;105801;1258;73872;-83
2023/06/06 00:59:11;;;;;;;;;;;;;;;24.85;41.70;98228.92;105811;1253;68542;-83
2023/06/06 01:01:41;;;;;;;;;;;;;;;24.85;41.67;98232.26;105855;1254;72775;-83
2023/06/06 01:04:10;;;;;;;;;;;;;;;24.85;41.75;98230.27;105733;1257;60422;-83
2023/06/06 01:06:38;;;;;;;;;;;;;;;24.84;41.77;98230.10;105776;1253;60458;-82
2023/06/06 01:09:06;;;;;;;;;;;;;;;24.83;41.75;98228.58;105898;1253;73308;-83
2023/06/06 01:11:37;;;;;;;;;;;;;;;24.83;41.74;98223.84;105811;1260;68002;-83
2023/06/06 01:14:28;;;;;;;;;;;;;;;24.83;41.76;98225.33;105865;1253;71614;-82
2023/06/06 01:16:57;;;;;;;;;;;;;;;24.82;41.87;98223.41;105673;1259;60540;-83
2023/06/06 01:19:27;;;;;;;;;;;;;;;24.82;41.78;98222.91;105908;1253;60313;-82
2023/06/06 01:21:58;;;;;;;;;;;;;;;24.82;41.87;98223.23;105917;1253;74773;-83
2023/06/06 01:24:27;;;;;;;;;;;;;;;24.82;41.72;98227.52;105794;1253;68636;-80
2023/06/06 01:26:55;;;;;;;;;;;;;;;24.82;41.78;98229.92;105801;1253;73314;-83
2023/06/06 01:29:23;;;;;;;;;;;;;;;24.81;41.88;98230.16;105967;1257;60448;-82
2023/06/06 01:32:11;;;;;;;;;;;;;;;24.81;41.77;98228.72;105815;1253;62106;-83
2023/06/06 01:34:42;;;;;;;;;;;;;;;24.81;41.80;98230.72;105744;1253;75581;-83
2023/06/06 01:37:11;;;;;;;;;;;;;;;24.80;41.83;98230.16;105857;1257;68299;-83
2023/06/06 01:39:40;;;;;;;;;;;;;;;24.80;41.88;98235.66;105960;1256;72777;-82
2023/06/06 01:42:08;;;;;;;;;;;;;;;24.80;41.78;98234.73;106188;1253;60458;-83
2023/06/06 01:44:36;;;;;;;;;;;;;;;24.80;41.80;98234.77;105863;1253;60520;-83
2023/06/06 01:47:04;;;;;;;;;;;;;;;24.80;41.85;98234.90;105891;1253;73992;-83
2023/06/06 01:49:32;;;;;;;;;;;;;;;24.80;41.82;98233.50;105781;1254;69199;-83
2023/06/06 01:52:00;;;;;;;;;;;;;;;24.80;41.76;98229.48;105990;1253;72900;-84
2023/06/06 01:54:34;;;;;;;;;;;;;;;24.79;41.90;98229.14;105854;1253;60622;-82
2023/06/06 01:57:02;;;;;;;;;;;;;;;24.79;41.81;98229.90;105812;1252;60514;-82
2023/06/06 01:59:30;;;;;;;;;;;;;;;24.79;41.79;98233.24;105804;1252;76494;-82
2023/06/06 02:02:00;;;;;;;;;;;;;;;24.79;41.85;98233.79;105846;1258;67585;-84
2023/06/06 02:04:28;;;;;;;;;;;;;;;24.79;41.86;98227.36;105829;1258;73540;-82
2023/06/06 02:06:56;;;;;;;;;;;;;;;24.78;41.84;98229.17;105647;1259;62754;-82
2023/06/06 02:09:24;;;;;;;;;;;;;;;24.78;41.89;98234.61;105700;1261;60545;-84
2023/06/06 02:11:52;;;;;;;;;;;;;;;24.78;41.80;98235.05;105922;1258;72021;-83
2023/06/06 02:14:21;;;;;;;;;;;;;;;24.78;41.85;98240.17;105998;1253;68950;-84
2023/06/06 02:16:49;;;;;;;;;;;;;;;24.78;41.91;98236.69;105813;1256;73390;-83
2023/06/06 02:19:17;;;;;;;;;;;;;;;24.77;41.81;98231.24;105801;1253;60502;-83
2023/06/06 02:21:45;;;;;;;;;;;;;;;24.77;41.84;98234.20;105772;1253;60971;-82
2023/06/06 02:24:15;;;;;;;;;;;;;;;24.77;41.83;98232.38;105620;1253;73931;-84
2023/06/06 02:26:44;;;;;;;;;;;;;;;24.76;41.87;98233.77;105704;1260;71223;-83
2023/06/06 02:29:11;;;;;;;;;;;;;;;24.75;41.91;98235.91;106005;1256;72136;-84
2023/06/06 02:31:39;;;;;;;;;;;;;;;24.76;41.86;98234.78;105949;1253;60747;-83
2023/06/06 02:34:07;;;;;;;;;;;;;;;24.75;41.87;98234.09;105862;1253;60435;-81
2023/06/06 02:36:38;;;;;;;;;;;;;;;24.75;41.89;98236.63;107868;1253;73091;-81
2023/06/06 02:39:06;;;;;;;;;;;;;;;24.75;41.90;98236.52;109640;1253;68327;-80
2023/06/06 02:41:34;;;;;;;;;;;;;;;24.76;41.88;98237.14;109571;1252;72551;-80
2023/06/06 02:44:03;;;;;;;;;;;;;;;24.76;41.84;98236.89;107388;1253;60330;-80
2023/06/06 02:46:31;;;;;;;;;;;;;;;24.77;41.85;98239.86;106474;1253;60569;-82
2023/06/06 02:49:00;;;;;;;;;;;;;;;24.79;41.78;98240.92;105918;1253;72903;-82
2023/06/06 02:51:28;;;;;;;;;;;;;;;24.80;41.84;98239.36;107997;1252;69320;-83
2023/06/06 02:53:56;;;;;;;;;;;;;;;24.80;41.82;98243.64;109383;1252;71920;-81
2023/06/06 02:56:25;;;;;;;;;;;;;;;24.81;41.76;98243.17;109431;1253;59039;-83
2023/06/06 02:58:53;;;;;;;;;;;;;;;24.82;41.67;98239.05;109468;1253;59326;-82
2023/06/06 03:01:21;;;;;;;;;;;;;;;24.83;41.73;98240.49;108854;1254;71766;-81
2023/06/06 03:03:49;;;;;;;;;;;;;;;24.85;41.65;98242.19;106320;1254;69037;-83
2023/06/06 03:06:18;;;;;;;;;;;;;;;24.86;41.65;98242.95;106343;1257;71543;-82
2023/06/06 03:08:46;;;;;;;;;;;;;;;24.86;41.69;98244.70;105835;1262;60540;-82
2023/06/06 03:11:14;;;;;;;;;;;;;;;24.87;41.67;98245.77;105715;1260;60600;-82
2023/06/06 03:13:44;;;;;;;;;;;;;;;24.87;41.68;98246.26;105822;1253;72765;-82
2023/06/06 03:16:15;;;;;;;;;;;;;;;24.87;41.61;98245.91;105812;1253;69162;-83
2023/06/06 03:18:47;;;;;;;;;;;;;;;24.86;41.69;98245.84;105920;1258;71608;-83
2023/06/06 03:21:15;;;;;;;;;;;;;;;24.85;41.71;98246.30;106084;1253;60524;-83
2023/06/06 03:23:45;;;;;;;;;;;;;;;24.85;41.62;98248.23;108938;1253;60619;-83
2023/06/06 03:26:13;;;;;;;;;;;;;;;24.84;41.76;98247.89;109312;1252;75295;-82
2023/06/06 03:28:41;;;;;;;;;;;;;;;24.84;41.66;98246.33;107954;1258;67540;-83
2023/06/06 03:31:12;;;;;;;;;;;;;;;24.83;41.66;98244.89;106087;1253;74979;-83
2023/06/06 03:33:47;;;;;;;;;;;;;;;24.83;41.66;98245.98;105981;1253;142302;-83
2023/06/06 03:36:16;;;;;;;;;;;;;;;24.84;41.62;98248.05;106075;1253;60502;-83
2023/06/06 03:38:45;;;;;;;;;;;;;;;24.83;41.72;98245.68;106050;1257;75277;-82
2023/06/06 03:41:14;;;;;;;;;;;;;;;24.83;41.73;98245.34;106038;1257;69345;-83
2023/06/06 03:43:45;;;;;;;;;;;;;;;24.82;41.75;98242.64;105843;1260;71506;-82
2023/06/06 03:46:13;;;;;;;;;;;;;;;24.82;41.72;98241.45;105748;1256;60485;-81
2023/06/06 03:48:42;;;;;;;;;;;;;;;24.80;41.75;98240.90;105971;1253;60454;-80
2023/06/06 03:51:10;;;;;;;;;;;;;;;24.79;41.76;98238.82;105931;1259;72959;-81
2023/06/06 03:53:38;;;;;;;;;;;;;;;24.79;41.67;98245.07;106120;1253;68953;-80
2023/06/06 03:56:06;;;;;;;;;;;;;;;24.78;41.79;98247.77;105853;1253;71951;-82
2023/06/06 03:58:36;;;;;;;;;;;;;;;24.77;41.72;98250.12;105729;1258;61426;-80
2023/06/06 04:01:04;;;;;;;;;;;;;;;24.77;41.77;98251.98;106122;1259;60293;-85
2023/06/06 04:03:36;;;;;;;;;;;;;;;24.76;41.90;98254.67;105861;1253;73893;-83
2023/06/06 04:06:06;;;;;;;;;;;;;;;24.76;41.98;98258.52;106137;1253;69025;-81
2023/06/06 04:08:34;;;;;;;;;;;;;;;24.75;41.93;98259.56;106062;1253;72010;-83
2023/06/06 04:11:03;;;;;;;;;;;;;;;24.75;41.94;98258.13;106027;1253;60610;-84
2023/06/06 04:13:31;;;;;;;;;;;;;;;24.74;41.95;98258.22;105806;1258;60336;-83
2023/06/06 04:15:59;;;;;;;;;;;;;;;24.74;41.95;98257.55;105840;1253;74041;-84
2023/06/06 04:18:26;;;;;;;;;;;;;;;24.73;41.94;98259.10;106044;1256;67949;-83
2023/06/06 04:20:57;;;;;;;;;;;;;;;24.73;42.03;98256.94;105889;1257;73471;-82
2023/06/06 04:23:25;;;;;;;;;;;;;;;24.73;42.07;98257.27;105967;1253;61068;-82
2023/06/06 04:25:56;;;;;;;;;;;;;;;24.72;42.09;98256.05;106056;1257;62241;-83
2023/06/06 04:28:24;;;;;;;;;;;;;;;24.71;42.04;98254.73;105976;1257;74525;-83
2023/06/06 04:30:52;;;;;;;;;;;;;;;24.71;42.08;98256.21;105942;1253;68998;-84
2023/06/06 04:33:24;;;;;;;;;;;;;;;24.71;42.05;98253.69;105955;1261;71465;-83
2023/06/06 04:35:52;;;;;;;;;;;;;;;24.70;42.14;98251.18;106213;1257;60767;-83
2023/06/06 04:38:22;;;;;;;;;;;;;;;24.70;42.12;98249.14;106302;1253;62605;-84
2023/06/06 04:40:50;;;;;;;;;;;;;;;24.70;42.14;98247.55;106148;1259;74103;-83
2023/06/06 04:43:23;;;;;;;;;;;;;;;24.71;42.17;98246.02;106427;1253;69549;-83
2023/06/06 04:45:53;;;;;;;;;;;;;;;24.71;42.14;98247.80;106198;1257;71570;-84
2023/06/06 04:48:25;;;;;;;;;;;;;;;24.71;42.15;98246.33;106174;1253;60429;-83
2023/06/06 04:50:55;;;;;;;;;;;;;;;24.70;42.17;98245.14;106035;1253;60335;-80
2023/06/06 04:53:25;;;;;;;;;;;;;;;24.71;42.26;98243.54;106091;1260;73992;-82
2023/06/06 04:55:55;;;;;;;;;;;;;;;24.71;42.22;98246.48;106048;1253;68280;-82
2023/06/06 04:58:25;;;;;;;;;;;;;;;24.71;42.25;98245.98;106356;1253;72866;-86
2023/06/06 05:00:53;;;;;;;;;;;;;;;24.71;42.16;98249.41;106906;1253;60265;-84
2023/06/06 05:03:22;;;;;;;;;;;;;;;24.71;42.27;98248.73;106549;1252;60464;-83
2023/06/06 05:05:51;;;;;;;;;;;;;;;24.71;42.26;98249.58;106992;1253;74401;-79
2023/06/06 05:08:19;;;;;;;;;;;;;;;24.71;42.27;98248.35;109202;1252;67889;-82
2023/06/06 05:10:49;;;;;;;;;;;;;;;24.66;42.42;98248.63;108847;1253;72200;-79
2023/06/06 05:13:18;;;;;;;;;;;;;;;24.56;42.76;98246.29;109141;1251;58944;-80
2023/06/06 05:15:46;;;;;;;;;;;;;;;24.45;43.09;98251.42;109225;1253;59175;-83
2023/06/06 05:18:16;;;;;;;;;;;;;;;24.36;42.74;98249.73;108985;1252;73021;-83
2023/06/06 05:20:45;;;;;;;;;;;;;;;24.22;42.30;98249.04;109094;1253;67861;-82
2023/06/06 05:23:13;;;;;;;;;;;;;;;24.05;42.05;98249.36;108722;1253;71677;-83
2023/06/06 05:25:42;;;;;;;;;;;;;;;23.91;42.17;98250.79;108839;1257;58879;-80
2023/06/06 05:28:11;;;;;;;;;;;;;;;23.77;42.32;98248.80;109346;1252;61328;-83
2023/06/06 05:30:40;;;;;;;;;;;;;;;23.65;42.58;98249.05;108622;1254;72904;-79
2023/06/06 05:33:08;;;;;;;;;;;;;;;23.53;42.56;98252.79;108579;1252;71124;-83
2023/06/06 05:35:36;;;;;;;;;;;;;;;23.43;42.89;98259.47;108489;1257;72896;-84
2023/06/06 05:38:06;;;;;;;;;;;;;;;23.36;43.09;98257.03;109172;1252;60453;-86
2023/06/06 05:40:35;;;;;;;;;;;;;;;23.31;43.21;98256.97;109273;1253;58621;-85
2023/06/06 05:56:03;;;;;;;;;;;;;;;23.19;43.91;98259.84;99772;1268;947419;-83
2023/06/06 05:58:31;;;;;;;;;;;;;;;23.21;43.97;98264.20;108306;1267;73679;-89
2023/06/06 06:01:00;;;;;;;;;;;;;;;23.22;44.07;98265.81;107241;1269;68593;-91
2023/06/06 06:03:28;;;;;;;;;;;;;;;23.22;44.12;98259.23;107465;1270;73345;-90
2023/06/06 06:09:08;;;;;;;;;;;;;;;23.22;44.36;98262.65;102719;1267;949535;-89
2023/06/06 06:11:39;;;;;;;;;;;;;;;23.21;44.46;98265.69;107673;1268;73471;-87
2023/06/06 06:20:41;;;;;;;;;;;;;;;23.23;45.19;98267.52;107288;1268;60348;-89
2023/06/06 06:23:10;;;;;;;;;;;;;;;23.28;45.49;98265.02;106308;1274;60449;-85
2023/06/06 06:25:39;;;;;;;;;;;;;;;23.38;45.43;98270.91;106292;1268;74200;-90
2023/06/06 06:28:25;;;;;;;;;;;;;;;23.44;45.43;98276.39;106794;1268;68400;-91
2023/06/06 06:31:04;;;;;;;;;;;;;;;23.46;45.43;98272.98;106472;1274;72129;-87
2023/06/06 06:33:37;;;;;;;;;;;;;;;23.46;45.28;98270.05;106230;1273;60272;-86
2023/06/06 06:36:10;;;;;;;;;;;;;;;23.48;45.37;98273.69;106430;1270;60338;-94
2023/06/06 06:39:05;;;;;;;;;;;;;;;23.51;45.66;98266.24;106054;1272;72944;-87
2023/06/06 06:41:45;;;;;;;;;;;;;;;23.53;45.78;98265.70;105650;1280;68655;-89
2023/06/06 06:44:20;;;;;;;;;;;;;;;23.58;46.09;98261.11;106041;1274;74461;-87
2023/06/06 06:46:50;;;;;;;;;;;;;;;23.61;46.25;98260.48;106017;1272;60408;-91
2023/06/06 06:49:30;;;;;;;;;;;;;;;23.63;46.51;98261.05;105798;1271;62405;-86
2023/06/06 06:52:00;;;;;;;;;;;;;;;23.62;46.50;98259.48;105664;1276;74729;-82
2023/06/06 06:54:29;;;;;;;;;;;;;;;23.61;46.61;98259.41;105462;1275;68037;-82
2023/06/06 06:56:58;;;;;;;;;;;;;;;23.60;46.54;98258.79;105186;1273;72745;-84
2023/06/06 06:59:27;;;;;;;;;;;;;;;23.60;46.55;98257.93;105053;1274;60921;-88
2023/06/06 07:01:57;;;;;;;;;;;;;;;23.60;46.55;98258.78;105331;1277;60646;-84
2023/06/06 07:04:36;;;;;;;;;;;;;;;23.61;46.57;98261.41;106549;1274;76490;-87
2023/06/06 07:07:04;;;;;;;;;;;;;;;23.63;46.74;98259.91;107693;1279;71100;-86
2023/06/06 07:09:35;;;;;;;;;;;;;;;23.65;46.59;98257.11;107213;1277;71746;-84
2023/06/06 07:12:11;;;;;;;;;;;;;;;23.68;46.55;98252.02;107468;1280;59285;-82
2023/06/06 07:14:45;;;;;;;;;;;;;;;23.71;46.63;98245.14;107329;1276;59926;-86
2023/06/06 07:17:21;;;;;;;;;;;;;;;23.75;46.50;98241.98;107256;1277;74004;-84
2023/06/06 07:20:05;;;;;;;;;;;;;;;23.80;46.40;98246.42;107486;1276;69755;-78
2023/06/06 07:22:36;;;;;;;;;;;;;;;23.84;46.51;98241.04;107511;1276;72701;-80
2023/06/06 07:25:04;;;;;;;;;;;;;;;23.88;46.43;98237.13;107659;1276;58905;-80
2023/06/06 07:27:35;;;;;;;;;;;;;;;23.91;46.39;98233.79;107312;1278;58566;-81
2023/06/06 07:30:03;;;;;;;;;;;;;;;23.94;46.29;98236.30;107410;1276;73513;-81
2023/06/06 07:32:33;;;;;;;;;;;;;;;23.98;46.14;98238.33;107308;1277;68641;-81
2023/06/06 07:35:01;;;;;;;;;;;;;;;24.01;46.06;98235.77;107527;1277;74903;-84
2023/06/06 07:37:30;;;;;;;;;;;;;;;24.04;46.10;98238.33;107578;1278;58899;-83
2023/06/06 07:39:59;;;;;;;;;;;;;;;24.07;46.07;98237.35;107347;1278;58761;-81
2023/06/06 07:42:34;;;;;;;;;;;;;;;24.10;46.02;98239.83;107565;1278;72272;-79
2023/06/06 07:45:10;;;;;;;;;;;;;;;24.13;45.99;98237.08;107594;1281;67719;-84
2023/06/06 07:47:46;;;;;;;;;;;;;;;24.16;45.87;98237.69;107438;1276;71242;-80
2023/06/06 07:50:18;;;;;;;;;;;;;;;24.18;45.84;98239.59;107345;1276;60192;-80
2023/06/06 07:52:48;;;;;;;;;;;;;;;24.20;45.89;98241.77;107375;1278;59913;-85
2023/06/06 07:55:25;;;;;;;;;;;;;;;24.21;45.81;98242.35;107451;1280;74001;-85
2023/06/06 07:58:12;;;;;;;;;;;;;;;24.23;45.88;98239.42;107532;1278;68237;-84
2023/06/06 08:00:42;;;;;;;;;;;;;;;24.25;45.89;98242.19;107477;1278;72261;-79
2023/06/06 08:03:11;;;;;;;;;;;;;;;24.28;45.98;98243.70;107315;1278;62354;-83
2023/06/06 08:05:40;;;;;;;;;;;;;;;24.31;46.00;98238.31;107372;1278;58230;-82
2023/06/06 08:08:08;;;;;;;;;;;;;;;24.33;46.00;98238.72;107351;1278;73890;-83
2023/06/06 08:10:38;;;;;;;;;;;;;;;24.37;45.97;98230.77;107377;1278;71031;-82
2023/06/06 08:13:06;;;;;;;;;;;;;;;24.41;46.10;98226.98;107393;1278;71518;-84
2023/06/06 08:15:39;;;;;;;;;;;;;;;24.44;46.21;98224.14;107301;1278;58879;-84
2023/06/06 08:18:08;;;;;;;;;;;;;;;24.47;46.10;98219.43;107302;1278;60226;-81
2023/06/06 08:20:37;;;;;;;;;;;;;;;24.49;46.05;98225.48;107344;1278;74258;-84
2023/06/06 08:23:07;;;;;;;;;;;;;;;24.52;46.14;98222.80;107357;1278;70300;-81
2023/06/06 08:25:41;;;;;;;;;;;;;;;24.53;46.05;98218.73;107603;1278;72530;-85
2023/06/06 08:28:12;;;;;;;;;;;;;;;24.56;46.03;98214.02;107476;1278;59454;-85
2023/06/06 08:30:45;;;;;;;;;;;;;;;24.59;46.11;98214.05;107721;1278;58969;-85
2023/06/06 08:33:37;;;;;;;;;;;;;;;24.62;46.33;98215.27;107628;1278;72671;-84
2023/06/06 08:39:30;;;;;;;;;;;;;;;24.71;46.80;98209.35;106268;1289;599715;-87
2023/06/06 08:42:11;;;;;;;;;;;;;;;24.71;46.72;98207.33;108770;1263;60183;-84
2023/06/06 08:44:45;;;;;;;;;;;;;;;24.73;46.68;98205.30;108094;1261;59308;-87
2023/06/06 08:47:21;;;;;;;;;;;;;;;24.74;46.66;98201.48;107090;1259;73764;-85
2023/06/06 08:50:07;;;;;;;;;;;;;;;24.75;46.79;98201.48;106415;1261;68826;-86
2023/06/06 08:53:04;;;;;;;;;;;;;;;24.76;46.83;98206.14;102537;1258;6466187;-82
2023/06/06 08:55:49;;;;;;;;;;;;;;;24.77;46.85;98207.66;106196;1257;60008;-80
2023/06/06 08:58:26;;;;;;;;;;;;;;;24.78;46.75;98205.13;106193;1259;59269;-84
2023/06/06 09:01:07;;;;;;;;;;;;;;;24.78;46.75;98204.38;106468;1258;72264;-83
2023/06/06 09:03:38;;;;;;;;;;;;;;;24.79;46.74;98203.70;106720;1263;69410;-81
2023/06/06 09:06:13;;;;;;;;;;;;;;;24.80;46.70;98202.57;106474;1260;71430;-85
2023/06/06 09:08:46;;;;;;;;;;;;;;;24.79;46.50;98198.59;106910;1260;59669;-83
2023/06/06 09:11:35;;;;;;;;;;;;;;;24.79;46.34;98195.27;106480;1264;59375;-84
2023/06/06 09:14:13;;;;;;;;;;;;;;;24.80;46.28;98196.77;106159;1265;75376;-84
2023/06/06 09:16:44;;;;;;;;;;;;;;;24.80;46.07;98192.98;106216;1262;68995;-82
2023/06/06 09:19:24;;;;;;;;;;;;;;;24.81;45.96;98191.96;106593;1262;71302;-84
2023/06/06 09:21:53;;;;;;;;;;;;;;;24.81;45.89;98196.66;107067;1263;59645;-84
2023/06/06 09:24:21;;;;;;;;;;;;;;;24.81;45.72;98191.79;106607;1262;59793;-84
2023/06/06 09:26:49;;;;;;;;;;;;;;;24.81;45.73;98192.30;106649;1264;73658;-84
2023/06/06 09:29:17;;;;;;;;;;;;;;;24.82;45.77;98187.79;106481;1262;69795;-83
2023/06/06 09:31:48;;;;;;;;;;;;;;;24.82;45.61;98186.30;106744;1261;73482;-87
2023/06/06 09:34:17;;;;;;;;;;;;;;;24.82;45.54;98176.90;106743;1262;59375;-87
2023/06/06 09:36:45;;;;;;;;;;;;;;;24.83;45.48;98177.58;107055;1264;61163;-88
2023/06/06 09:39:17;;;;;;;;;;;;;;;24.83;45.39;98177.16;107380;1262;74984;-91
2023/06/06 09:42:11;;;;;;;;;;;;;;;24.83;45.41;98172.39;106312;1261;68673;-82
2023/06/06 09:44:40;;;;;;;;;;;;;;;24.84;45.30;98172.46;106318;1262;73922;-82
2023/06/06 09:47:12;;;;;;;;;;;;;;;24.84;45.22;98169.34;106597;1257;60857;-83
2023/06/06 09:49:48;;;;;;;;;;;;;;;24.84;45.30;98173.01;106710;1262;59592;-83
2023/06/06 09:52:30;;;;;;;;;;;;;;;24.84;45.27;98174.91;106907;1258;72497;-84
2023/06/06 09:55:43;;;;;;;;;;;;;;;24.86;45.36;98177.75;103297;1288;612447;-82
2023/06/06 09:59:18;;;;;;;;;;;;;;;24.86;45.41;98179.15;106048;1291;612171;-84
2023/06/06 10:01:47;;;;;;;;;;;;;;;24.85;45.41;98180.08;107326;1270;59798;-83
2023/06/06 10:04:16;;;;;;;;;;;;;;;24.85;45.41;98184.05;106373;1267;59244;-85
2023/06/06 10:06:49;;;;;;;;;;;;;;;24.86;45.32;98181.90;106361;1263;73731;-84
2023/06/06 10:09:22;;;;;;;;;;;;;;;24.86;45.29;98183.72;106551;1261;70975;-81
2023/06/06 10:11:54;;;;;;;;;;;;;;;24.87;45.24;98183.10;106302;1257;246672;-82
2023/06/06 10:14:22;;;;;;;;;;;;;;;24.87;45.59;98177.55;106416;1258;59706;-82
2023/06/06 10:17:04;;;;;;;;;;;;;;;24.88;45.53;98176.96;107248;1257;60254;-83
2023/06/06 10:20:05;;;;;;;;;;;;;;;24.87;45.68;98176.56;107196;1257;73775;-85
2023/06/06 10:22:57;;;;;;;;;;;;;;;24.89;45.82;98176.63;106807;1257;68829;-81
2023/06/06 10:25:37;;;;;;;;;;;;;;;24.91;45.89;98174.17;106535;1257;71536;-82
2023/06/06 10:28:22;;;;;;;;;;;;;;;24.92;45.96;98177.19;106667;1258;60985;-85
2023/06/06 10:30:57;;;;;;;;;;;;;;;24.92;46.17;98172.70;106810;1257;59667;-82
2023/06/06 10:34:00;;;;;;;;;;;;;;;24.94;46.18;98168.90;107445;1257;73435;-84
2023/06/06 10:36:40;;;;;;;;;;;;;;;24.94;46.22;98167.30;109197;1254;67469;-86
2023/06/06 10:39:20;;;;;;;;;;;;;;;24.96;46.25;98164.35;109194;1252;72812;-82
2023/06/06 10:41:57;;;;;;;;;;;;;;;24.99;46.41;98166.95;107665;1254;59787;-88
2023/06/06 10:44:35;;;;;;;;;;;;;;;25.02;46.43;98168.45;107027;1253;59608;-90
2023/06/06 10:47:23;;;;;;;;;;;;;;;25.04;46.38;98159.41;107192;1251;73160;-85
2023/06/06 10:50:14;;;;;;;;;;;;;;;25.08;46.32;98160.56;107422;1254;67109;-83
2023/06/06 10:52:48;;;;;;;;;;;;;;;25.09;46.17;98161.67;107937;1254;72487;-85
2023/06/06 10:55:25;;;;;;;;;;;;;;;25.11;46.23;98165.23;107776;1257;61196;-86
2023/06/06 10:57:56;;;;;;;;;;;;;;;25.13;46.33;98164.10;107406;1254;59612;-83
2023/06/06 11:00:33;;;;;;;;;;;;;;;25.14;46.32;98162.91;107206;1253;70947;-88
2023/06/06 11:03:13;;;;;;;;;;;;;;;25.15;46.17;98160.71;108007;1254;66854;-87
2023/06/06 11:06:08;;;;;;;;;;;;;;;25.15;46.22;98160.71;107399;1254;70424;-85
2023/06/06 11:08:53;;;;;;;;;;;;;;;25.17;46.38;98161.02;107488;1256;60653;-85
2023/06/06 11:11:28;;;;;;;;;;;;;;;25.18;46.37;98159.33;107500;1254;60106;-85
2023/06/06 11:14:08;;;;;;;;;;;;;;;25.20;46.29;98159.88;107960;1254;71788;-86
2023/06/06 11:16:46;;;;;;;;;;;;;;;25.21;46.19;98159.92;107704;1254;68971;-85
2023/06/06 11:19:38;;;;;;;;;;;;;;;25.21;46.13;98158.45;108045;1257;73183;-86
2023/06/06 11:22:19;;;;;;;;;;;;;;;25.23;46.09;98162.14;107920;1254;60960;-85
2023/06/06 11:24:50;;;;;;;;;;;;;;;25.24;46.01;98161.26;107334;1254;59735;-90
2023/06/06 11:27:26;;;;;;;;;;;;;;;25.26;45.94;98163.28;107453;1253;70879;-84
2023/06/06 11:29:59;;;;;;;;;;;;;;;25.28;45.95;98163.84;107338;1254;68743;-86
2023/06/06 11:32:28;;;;;;;;;;;;;;;25.28;46.11;98162.09;107445;1253;72100;-89
2023/06/06 11:35:17;;;;;;;;;;;;;;;25.30;46.05;98158.89;106962;1258;59752;-85
2023/06/06 11:38:07;;;;;;;;;;;;;;;25.32;46.22;98158.60;107293;1257;60550;-86
2023/06/06 11:41:16;;;;;;;;;;;;;;;25.33;46.31;98154.25;106876;1260;71982;-83
2023/06/06 11:43:57;;;;;;;;;;;;;;;25.34;46.25;98155.98;106897;1262;68159;-85
2023/06/06 11:47:08;;;;;;;;;;;;;;;25.34;46.14;98157.09;106250;1264;71393;-84
2023/06/06 11:49:47;;;;;;;;;;;;;;;25.34;46.11;98154.95;106633;1267;61359;-83
2023/06/06 11:52:21;;;;;;;;;;;;;;;25.34;46.26;98158.06;106396;1264;59600;-84
2023/06/06 11:55:04;;;;;;;;;;;;;;;25.34;46.32;98158.98;106432;1263;73271;-82
2023/06/06 11:57:52;;;;;;;;;;;;;;;25.34;46.24;98163.23;106560;1264;69626;-84
2023/06/06 12:00:35;;;;;;;;;;;;;;;25.34;46.22;98166.27;106883;1263;73833;-85
2023/06/06 12:03:27;;;;;;;;;;;;;;;25.34;46.41;98166.45;106598;1265;60946;-85
2023/06/06 12:06:09;;;;;;;;;;;;;;;25.35;46.24;98167.20;106486;1267;60124;-84
2023/06/06 12:08:47;;;;;;;;;;;;;;;25.36;46.23;98166.43;106883;1261;72804;-84
2023/06/06 12:11:31;;;;;;;;;;;;;;;25.36;46.19;98168.21;106761;1263;67796;-84
2023/06/06 12:14:17;;;;;;;;;;;;;;;25.37;46.16;98167.38;106517;1262;72206;-83
2023/06/06 12:16:47;;;;;;;;;;;;;;;25.37;46.08;98165.89;106606;1263;59652;-81
2023/06/06 12:19:18;;;;;;;;;;;;;;;25.37;45.97;98163.70;106645;1263;60615;-84
2023/06/06 12:21:51;;;;;;;;;;;;;;;25.38;46.02;98162.63;106385;1266;73351;-84
2023/06/06 12:24:23;;;;;;;;;;;;;;;25.37;45.97;98162.46;105865;1261;70001;-83
2023/06/06 12:26:56;;;;;;;;;;;;;;;25.38;45.95;98160.98;106051;1261;72723;-80
2023/06/06 12:29:30;;;;;;;;;;;;;;;25.38;45.70;98160.22;106377;1262;59740;-82
2023/06/06 12:32:30;;;;;;;;;;;;;;;25.38;46.05;98158.91;106163;1261;59302;-81
2023/06/06 12:35:05;;;;;;;;;;;;;;;25.38;45.85;98160.77;108701;1257;72163;-86
2023/06/06 12:37:42;;;;;;;;;;;;;;;25.38;45.94;98158.56;109111;1256;67783;-82
2023/06/06 12:40:20;;;;;;;;;;;;;;;25.38;45.98;98157.60;107814;1256;70912;-84
2023/06/06 12:42:55;;;;;;;;;;;;;;;25.39;45.97;98155.88;106492;1258;61137;-83
2023/06/06 12:45:36;;;;;;;;;;;;;;;25.40;45.79;98154.01;106472;1257;60869;-82
2023/06/06 12:48:07;;;;;;;;;;;;;;;25.41;45.79;98156.54;106704;1257;73658;-81
2023/06/06 12:50:36;;;;;;;;;;;;;;;25.41;45.78;98159.84;106831;1254;70106;-83
2023/06/06 12:53:08;;;;;;;;;;;;;;;25.41;45.84;98164.89;106539;1254;72889;-79
2023/06/06 12:55:43;;;;;;;;;;;;;;;25.41;45.91;98170.21;106536;1254;59619;-82
2023/06/06 12:58:17;;;;;;;;;;;;;;;25.41;45.90;98172.96;107076;1254;60715;-83
2023/06/06 13:01:04;;;;;;;;;;;;;;;25.41;46.68;98180.27;106916;1254;73223;-81
2023/06/06 13:03:46;;;;;;;;;;;;;;;25.41;47.39;98187.42;106583;1254;70183;-83
2023/06/06 13:06:21;;;;;;;;;;;;;;;25.40;48.33;98190.55;106867;1257;73370;-83
2023/06/06 13:08:56;;;;;;;;;;;;;;;25.39;48.76;98189.44;107146;1254;60427;-83
2023/06/06 13:11:28;;;;;;;;;;;;;;;25.37;48.77;98188.90;106505;1254;59893;-82
2023/06/06 13:14:05;;;;;;;;;;;;;;;25.36;49.06;98187.27;106540;1254;72435;-85
2023/06/06 13:16:43;;;;;;;;;;;;;;;25.34;49.53;98187.99;106791;1254;69451;-83
2023/06/06 13:19:36;;;;;;;;;;;;;;;25.33;49.92;98189.52;106657;1254;73132;-80
2023/06/06 13:22:08;;;;;;;;;;;;;;;25.32;50.25;98187.86;106370;1254;60327;-83
2023/06/06 13:25:07;;;;;;;;;;;;;;;25.30;50.31;98190.48;106535;1254;60163;-84
2023/06/06 13:27:41;;;;;;;;;;;;;;;25.28;50.28;98192.71;106992;1254;72451;-81
2023/06/06 13:30:14;;;;;;;;;;;;;;;25.28;50.91;98197.71;106692;1254;67631;-81
2023/06/06 13:32:51;;;;;;;;;;;;;;;25.27;51.31;98199.31;106691;1254;73239;-82
2023/06/06 13:35:23;;;;;;;;;;;;;;;25.24;51.21;98196.39;106570;1259;60092;-81